Time;durP1;ratioP1;P1;durP2;ratioP2;P2;SDS_P1;SDS_P2;PMS_P1;PMS_P2;Temp;Humidity;BMP_temperature;BMP_pressure;BME280_temperature;BME280_humidity;BME280_pressure;Samples;Min_cycle;Max_cycle;Signal;HPM_P1;HPM_P2
2022/03/30 00:00:31;;;;;;;34.7;46;;;;;;;7.6;75.3;97810;;;;
2022/03/30 00:10:31;;;;;;;34.7;46;;;;;;;7.6;75;97790;;;;
2022/03/30 00:21:31;;;;;;;34.1;40.8;;;;;;;7.6;74.5;97790;;;;
2022/03/30 00:31:32;;;;;;;34.1;40.8;;;;;;;7.4;75.3;97780;;;;
2022/03/30 00:41:31;;;;;;;34.1;40.8;;;;;;;7.4;75.3;97770;;;;
2022/03/30 00:51:31;;;;;;;31.6;38.5;;;;;;;7.4;75.4;97770;;;;
2022/03/30 01:02:32;;;;;;;31.6;38.5;;;;;;;7.4;75.7;97760;;;;
2022/03/30 01:12:32;;;;;;;33.2;39.6;;;;;;;7.4;75.8;97760;;;;
2022/03/30 01:22:33;;;;;;;33.2;39.6;;;;;;;7.3;76;97750;;;;
2022/03/30 01:32:34;;;;;;;33.2;39.6;;;;;;;7.2;76.5;97740;;;;
2022/03/30 01:43:31;;;;;;;31.3;35.8;;;;;;;7.2;76.2;97720;;;;
2022/03/30 01:53:32;;;;;;;31.3;35.8;;;;;;;7.2;76.3;97720;;;;
2022/03/30 02:04:31;;;;;;;31.3;35.8;;;;;;;7.2;76.8;97700;;;;
2022/03/30 02:14:31;;;;;;;34.2;43.5;;;;;;;7.2;76.4;97700;;;;
2022/03/30 02:25:32;;;;;;;34.2;43.5;;;;;;;7.2;76.7;97690;;;;
2022/03/30 02:36:31;;;;;;;34.2;43.5;;;;;;;7.1;76.9;97690;;;;
2022/03/30 02:46:32;;;;;;;33.9;40.9;;;;;;;7.2;77.1;97680;;;;
2022/03/30 02:57:31;;;;;;;33.9;40.9;;;;;;;7.1;77.1;97670;;;;
2022/03/30 03:07:32;;;;;;;33.9;40.9;;;;;;;7.1;76.9;97670;;;;
2022/03/30 03:17:31;;;;;;;34.7;41.5;;;;;;;7;77.8;97680;;;;
2022/03/30 03:28:31;;;;;;;34.7;41.5;;;;;;;7;77.5;97670;;;;
2022/03/30 03:38:31;;;;;;;34.7;41.5;;;;;;;7;76.7;97670;;;;
2022/03/30 03:48:32;;;;;;;36;47.7;;;;;;;6.9;76.9;97680;;;;
2022/03/30 03:58:32;;;;;;;36;47.7;;;;;;;6.7;76.3;97680;;;;
2022/03/30 04:09:32;;;;;;;36;47.7;;;;;;;6.4;76.2;97680;;;;
2022/03/30 04:19:32;;;;;;;35.1;46.2;;;;;;;6.1;78.5;97670;;;;
2022/03/30 04:29:32;;;;;;;35.1;46.2;;;;;;;5.9;78.2;97670;;;;
2022/03/30 04:40:32;;;;;;;35.1;46.2;;;;;;;5.7;79.6;97660;;;;
2022/03/30 04:50:32;;;;;;;35.5;41;;;;;;;5.7;80.1;97670;;;;
2022/03/30 05:01:32;;;;;;;35.5;41;;;;;;;5.7;80.3;97670;;;;
2022/03/30 05:12:32;;;;;;;38.7;49;;;;;;;5.9;80.1;97660;;;;
2022/03/30 05:23:32;;;;;;;38.7;49;;;;;;;6.1;79.6;97670;;;;
2022/03/30 05:33:32;;;;;;;38.7;49;;;;;;;6.2;79.4;97670;;;;
2022/03/30 05:43:32;;;;;;;35.1;42.6;;;;;;;6.2;78.5;97670;;;;
2022/03/30 05:54:32;;;;;;;35.1;42.6;;;;;;;6.6;77.6;97680;;;;
2022/03/30 06:04:32;;;;;;;35.1;42.6;;;;;;;6.9;77.2;97680;;;;
2022/03/30 06:15:32;;;;;;;35.7;42.9;;;;;;;7.3;75.7;97670;;;;
2022/03/30 06:25:32;;;;;;;35.7;42.9;;;;;;;7.9;74.8;97670;;;;
2022/03/30 06:35:32;;;;;;;35.7;42.9;;;;;;;8.1;68.4;97670;;;;
2022/03/30 06:45:32;;;;;;;34.2;44.5;;;;;;;8.5;65.9;97670;;;;
2022/03/30 06:56:32;;;;;;;34.2;44.5;;;;;;;8.3;61.2;97670;;;;
2022/03/30 07:06:32;;;;;;;34.2;44.5;;;;;;;8.4;60.2;97670;;;;
2022/03/30 07:17:33;;;;;;;22.8;28.4;;;;;;;9.1;60.3;97680;;;;
2022/03/30 07:27:32;;;;;;;22.8;28.4;;;;;;;9.2;59.1;97670;;;;
2022/03/30 07:38:32;;;;;;;22.8;28.4;;;;;;;9.7;58;97670;;;;
2022/03/30 07:49:32;;;;;;;21.1;26.3;;;;;;;10.1;56.4;97680;;;;
2022/03/30 07:59:32;;;;;;;21.1;26.3;;;;;;;10.4;53.9;97660;;;;
2022/03/30 08:09:32;;;;;;;21.1;26.3;;;;;;;10.2;53.1;97650;;;;
2022/03/30 08:31:32;;;;;;;20.2;24.2;;;;;;;11.3;51.4;97650;;;;
2022/03/30 08:41:32;;;;;;;20;23.6;;;;;;;11.2;50.5;97650;;;;
2022/03/30 08:51:32;;;;;;;20;23.6;;;;;;;11.4;50.4;97640;;;;
2022/03/30 09:02:32;;;;;;;20;23.6;;;;;;;11.5;49.6;97640;;;;
2022/03/30 09:13:32;;;;;;;19.6;26;;;;;;;11.4;50.6;97640;;;;
2022/03/30 09:24:32;;;;;;;19.6;26;;;;;;;12.5;50.1;97630;;;;
2022/03/30 09:34:33;;;;;;;19.6;26;;;;;;;12.2;49.7;97620;;;;
2022/03/30 09:44:32;;;;;;;21.3;25;;;;;;;12.8;47.7;97610;;;;
2022/03/30 09:55:32;;;;;;;21.3;25;;;;;;;13.1;47.6;97590;;;;
2022/03/30 10:05:32;;;;;;;21.3;25;;;;;;;12.8;46.8;97580;;;;
2022/03/30 10:15:32;;;;;;;20.8;25.3;;;;;;;13.5;46.2;97570;;;;
2022/03/30 10:26:32;;;;;;;20.8;25.3;;;;;;;13.7;46.3;97550;;;;
2022/03/30 10:37:34;;;;;;;20.8;25.3;;;;;;;13.8;45.4;97540;;;;
2022/03/30 10:48:33;;;;;;;18.4;24;;;;;;;13.5;46.3;97530;;;;
2022/03/30 10:58:32;;;;;;;18.4;24;;;;;;;13.5;45.5;97520;;;;
2022/03/30 11:08:32;;;;;;;18.4;24;;;;;;;13.4;45.8;97510;;;;
2022/03/30 11:19:32;;;;;;;19.7;24.2;;;;;;;14.2;43.8;97500;;;;
2022/03/30 11:29:32;;;;;;;19.7;24.2;;;;;;;14;42.3;97490;;;;
2022/03/30 11:40:32;;;;;;;19.3;26;;;;;;;14.4;43.5;97480;;;;
2022/03/30 11:50:32;;;;;;;19.3;26;;;;;;;14.4;43.9;97470;;;;
2022/03/30 12:00:32;;;;;;;19.3;26;;;;;;;14.7;42.7;97470;;;;
2022/03/30 12:10:32;;;;;;;16.6;22.9;;;;;;;15;41.9;97450;;;;
2022/03/30 12:21:34;;;;;;;16.6;22.9;;;;;;;15.4;42.4;97440;;;;
2022/03/30 12:31:32;;;;;;;16.6;22.9;;;;;;;14.9;42.1;97430;;;;
2022/03/30 12:42:33;;;;;;;15.9;21.5;;;;;;;15.2;41.1;97420;;;;
2022/03/30 12:52:32;;;;;;;15.9;21.5;;;;;;;15.2;41.2;97410;;;;
2022/03/30 13:02:32;;;;;;;15.9;21.5;;;;;;;15;41.1;97400;;;;
2022/03/30 13:13:32;;;;;;;14.9;20.9;;;;;;;14.9;42.4;97390;;;;
2022/03/30 13:23:32;;;;;;;14.9;20.9;;;;;;;14.5;42.9;97370;;;;
2022/03/30 13:33:32;;;;;;;14.9;20.9;;;;;;;15;41.3;97350;;;;
2022/03/30 13:43:32;;;;;;;15;20.1;;;;;;;15.3;41.2;97350;;;;
2022/03/30 13:54:32;;;;;;;15;20.1;;;;;;;15;42.3;97340;;;;
2022/03/30 14:04:32;;;;;;;15;20.1;;;;;;;14.2;44;97330;;;;
2022/03/30 14:14:34;;;;;;;15.5;22.7;;;;;;;14.2;44.5;97320;;;;
2022/03/30 14:25:32;;;;;;;15.5;22.7;;;;;;;14;44.5;97310;;;;
2022/03/30 14:36:32;;;;;;;15.5;22.7;;;;;;;13.5;45.7;97300;;;;
2022/03/30 14:47:32;;;;;;;15.8;19.5;;;;;;;13.3;46.9;97290;;;;
2022/03/30 14:57:32;;;;;;;15.8;19.5;;;;;;;13.1;47.7;97280;;;;
2022/03/30 15:08:32;;;;;;;15.8;19.5;;;;;;;12.9;48.2;97270;;;;
2022/03/30 15:18:32;;;;;;;24.3;31.3;;;;;;;12.6;49.2;97260;;;;
2022/03/30 15:28:33;;;;;;;24.3;31.3;;;;;;;12.2;55.6;97260;;;;
2022/03/30 15:39:32;;;;;;;24.3;31.3;;;;;;;11.7;61.9;97250;;;;
2022/03/30 15:50:32;;;;;;;20.2;25.1;;;;;;;11.5;64.1;97250;;;;
2022/03/30 16:01:32;;;;;;;20.2;25.1;;;;;;;11.3;65.1;97240;;;;
2022/03/30 16:12:36;;;;;;;23.9;28.5;;;;;;;10.9;66.5;97230;;;;
2022/03/30 16:22:32;;;;;;;23.9;28.5;;;;;;;10.8;67.6;97230;;;;
2022/03/30 16:32:32;;;;;;;23.9;28.5;;;;;;;10.6;69.6;97240;;;;
2022/03/30 16:42:33;;;;;;;30.2;35.9;;;;;;;10.5;68.3;97240;;;;
2022/03/30 16:53:32;;;;;;;30.2;35.9;;;;;;;10.2;69.5;97230;;;;
2022/03/30 17:03:33;;;;;;;30.2;35.9;;;;;;;9.8;71;97220;;;;
2022/03/30 17:13:32;;;;;;;40;48.2;;;;;;;9.8;73.1;97230;;;;
2022/03/30 17:23:32;;;;;;;40;48.2;;;;;;;9.3;77.8;97210;;;;
2022/03/30 17:34:32;;;;;;;40;48.2;;;;;;;9.1;80.2;97190;;;;
2022/03/30 17:45:32;;;;;;;32.3;38.2;;;;;;;9.3;77.6;97210;;;;
2022/03/30 17:55:32;;;;;;;32.3;38.2;;;;;;;9;77.9;97210;;;;
2022/03/30 18:05:32;;;;;;;32.3;38.2;;;;;;;9.1;79.1;97200;;;;
2022/03/30 18:16:32;;;;;;;29.6;39.1;;;;;;;9.1;80.6;97200;;;;
2022/03/30 18:26:32;;;;;;;29.6;39.1;;;;;;;9;80.6;97200;;;;
2022/03/30 18:36:32;;;;;;;29.6;39.1;;;;;;;9;81.3;97190;;;;
2022/03/30 18:46:32;;;;;;;35.6;41.9;;;;;;;8.9;82;97170;;;;
2022/03/30 18:57:34;;;;;;;35.6;41.9;;;;;;;8.8;83.1;97160;;;;
2022/03/30 19:07:32;;;;;;;35.6;41.9;;;;;;;8.8;83.1;97160;;;;
2022/03/30 19:18:32;;;;;;;37.7;42.6;;;;;;;8.7;83.6;97170;;;;
2022/03/30 19:29:32;;;;;;;37.7;42.6;;;;;;;8.7;84.2;97160;;;;
2022/03/30 19:39:32;;;;;;;38.6;43.7;;;;;;;8.7;83.8;97140;;;;
2022/03/30 19:49:32;;;;;;;38.6;43.7;;;;;;;8.6;83.4;97140;;;;
2022/03/30 20:00:34;;;;;;;38.6;43.7;;;;;;;8.6;83.5;97130;;;;
2022/03/30 20:10:32;;;;;;;37.4;44.8;;;;;;;8.5;84;97120;;;;
2022/03/30 20:21:32;;;;;;;37.4;44.8;;;;;;;8.5;84;97120;;;;
2022/03/30 20:31:32;;;;;;;37.4;44.8;;;;;;;8.5;83.9;97120;;;;
2022/03/30 20:41:32;;;;;;;36.2;43.3;;;;;;;8.3;83.8;97120;;;;
2022/03/30 20:51:32;;;;;;;36.2;43.3;;;;;;;8.3;84.3;97110;;;;
2022/03/30 21:02:32;;;;;;;36.2;43.3;;;;;;;8.2;84.2;97090;;;;
2022/03/30 21:12:32;;;;;;;36.6;42.2;;;;;;;8.1;84.7;97080;;;;
2022/03/30 21:23:32;;;;;;;36.6;42.2;;;;;;;8.2;84.3;97090;;;;
2022/03/30 21:33:32;;;;;;;36.6;42.2;;;;;;;8.1;84.4;97090;;;;
2022/03/30 21:44:32;;;;;;;33.7;44.8;;;;;;;8;84.6;97080;;;;
2022/03/30 21:55:32;;;;;;;33.7;44.8;;;;;;;8;84.7;97070;;;;
2022/03/30 22:05:32;;;;;;;33.7;44.8;;;;;;;8.1;84.5;97060;;;;
2022/03/30 22:16:32;;;;;;;35.5;42.5;;;;;;;7.9;85;97050;;;;
2022/03/30 22:27:32;;;;;;;35.5;42.5;;;;;;;7.9;85;97030;;;;
2022/03/30 22:37:32;;;;;;;35.5;42.5;;;;;;;7.8;85.4;97020;;;;
2022/03/30 22:48:32;;;;;;;36.3;42.1;;;;;;;7.8;85.6;97020;;;;
2022/03/30 22:59:32;;;;;;;36.3;42.1;;;;;;;7.8;85.6;97020;;;;
2022/03/30 23:09:32;;;;;;;36.3;41.1;;;;;;;7.8;85.4;97030;;;;
2022/03/30 23:19:32;;;;;;;36.3;41.1;;;;;;;7.5;85.8;97030;;;;
2022/03/30 23:30:32;;;;;;;36.3;41.1;;;;;;;7.4;85.8;97030;;;;
2022/03/30 23:40:32;;;;;;;36.3;41.9;;;;;;;7.2;85.6;97040;;;;
2022/03/30 23:50:32;;;;;;;36.3;41.9;;;;;;;7.1;86;97030;;;;
